sensor_id;sensor_type;location;lat;lon;timestamp;P1;durP1;ratioP1;P2;durP2;ratioP2
27357;SDS011;14831;50.474;7.616;2023-04-15T00:04:07;1.0;;;0.9;;
27357;SDS011;14831;50.474;7.616;2023-04-15T00:09:14;1.0;;;0.9;;
27357;SDS011;14831;50.474;7.616;2023-04-15T00:14:07;0.7;;;0.7;;
27357;SDS011;14831;50.474;7.616;2023-04-15T00:19:07;0.7;;;0.7;;
27357;SDS011;14831;50.474;7.616;2023-04-15T00:24:07;0.7;;;0.7;;
27357;SDS011;14831;50.474;7.616;2023-04-15T00:29:12;0.7;;;0.7;;
27357;SDS011;14831;50.474;7.616;2023-04-15T00:34:07;0.7;;;0.7;;
27357;SDS011;14831;50.474;7.616;2023-04-15T00:39:07;0.7;;;0.7;;
27357;SDS011;14831;50.474;7.616;2023-04-15T00:44:07;1.0;;;0.8;;
27357;SDS011;14831;50.474;7.616;2023-04-15T00:49:13;1.0;;;0.8;;
27357;SDS011;14831;50.474;7.616;2023-04-15T00:54:07;1.0;;;0.8;;
27357;SDS011;14831;50.474;7.616;2023-04-15T00:59:07;1.0;;;0.8;;
27357;SDS011;14831;50.474;7.616;2023-04-15T01:04:07;1.0;;;0.8;;
27357;SDS011;14831;50.474;7.616;2023-04-15T01:09:12;1.0;;;0.8;;
27357;SDS011;14831;50.474;7.616;2023-04-15T01:14:08;0.7;;;0.7;;
27357;SDS011;14831;50.474;7.616;2023-04-15T01:19:08;0.7;;;0.7;;
27357;SDS011;14831;50.474;7.616;2023-04-15T01:24:09;0.7;;;0.7;;
27357;SDS011;14831;50.474;7.616;2023-04-15T01:29:11;0.7;;;0.7;;
27357;SDS011;14831;50.474;7.616;2023-04-15T01:34:07;0.7;;;0.7;;
27357;SDS011;14831;50.474;7.616;2023-04-15T01:39:07;0.7;;;0.7;;
27357;SDS011;14831;50.474;7.616;2023-04-15T01:44:07;0.8;;;0.7;;
27357;SDS011;14831;50.474;7.616;2023-04-15T01:49:12;0.8;;;0.7;;
27357;SDS011;14831;50.474;7.616;2023-04-15T01:56:33;0.8;;;0.7;;
27357;SDS011;14831;50.474;7.616;2023-04-15T01:59:07;0.8;;;0.7;;
27357;SDS011;14831;50.474;7.616;2023-04-15T02:04:07;0.8;;;0.7;;
27357;SDS011;14831;50.474;7.616;2023-04-15T02:09:11;0.8;;;0.7;;
27357;SDS011;14831;50.474;7.616;2023-04-15T02:14:07;0.7;;;0.7;;
27357;SDS011;14831;50.474;7.616;2023-04-15T02:19:07;0.7;;;0.7;;
27357;SDS011;14831;50.474;7.616;2023-04-15T02:24:07;0.7;;;0.7;;
27357;SDS011;14831;50.474;7.616;2023-04-15T02:29:12;0.7;;;0.7;;
27357;SDS011;14831;50.474;7.616;2023-04-15T02:34:07;0.7;;;0.7;;
27357;SDS011;14831;50.474;7.616;2023-04-15T02:39:07;0.7;;;0.7;;
27357;SDS011;14831;50.474;7.616;2023-04-15T02:44:07;0.7;;;0.7;;
27357;SDS011;14831;50.474;7.616;2023-04-15T02:49:13;0.7;;;0.7;;
27357;SDS011;14831;50.474;7.616;2023-04-15T02:54:07;0.7;;;0.7;;
27357;SDS011;14831;50.474;7.616;2023-04-15T02:59:07;0.7;;;0.7;;
27357;SDS011;14831;50.474;7.616;2023-04-15T03:04:07;0.7;;;0.7;;
27357;SDS011;14831;50.474;7.616;2023-04-15T03:09:12;0.7;;;0.7;;
27357;SDS011;14831;50.474;7.616;2023-04-15T03:14:07;0.9;;;0.9;;
27357;SDS011;14831;50.474;7.616;2023-04-15T03:19:07;0.9;;;0.9;;
27357;SDS011;14831;50.474;7.616;2023-04-15T03:24:07;0.9;;;0.9;;
27357;SDS011;14831;50.474;7.616;2023-04-15T03:29:09;0.9;;;0.9;;
27357;SDS011;14831;50.474;7.616;2023-04-15T03:34:07;0.9;;;0.9;;
27357;SDS011;14831;50.474;7.616;2023-04-15T03:39:07;0.9;;;0.9;;
27357;SDS011;14831;50.474;7.616;2023-04-15T03:44:07;0.8;;;0.8;;
27357;SDS011;14831;50.474;7.616;2023-04-15T03:49:08;0.8;;;0.8;;
27357;SDS011;14831;50.474;7.616;2023-04-15T03:54:07;0.8;;;0.8;;
27357;SDS011;14831;50.474;7.616;2023-04-15T03:59:07;0.8;;;0.8;;
27357;SDS011;14831;50.474;7.616;2023-04-15T04:04:07;0.8;;;0.8;;
27357;SDS011;14831;50.474;7.616;2023-04-15T04:09:07;0.8;;;0.8;;
27357;SDS011;14831;50.474;7.616;2023-04-15T04:14:07;0.9;;;0.9;;
27357;SDS011;14831;50.474;7.616;2023-04-15T04:19:07;0.9;;;0.9;;
27357;SDS011;14831;50.474;7.616;2023-04-15T04:24:07;0.9;;;0.9;;
27357;SDS011;14831;50.474;7.616;2023-04-15T04:29:07;0.9;;;0.9;;
27357;SDS011;14831;50.474;7.616;2023-04-15T04:34:07;0.9;;;0.9;;
27357;SDS011;14831;50.474;7.616;2023-04-15T04:39:07;0.9;;;0.9;;
27357;SDS011;14831;50.474;7.616;2023-04-15T04:44:07;0.8;;;0.8;;
27357;SDS011;14831;50.474;7.616;2023-04-15T04:49:07;0.8;;;0.8;;
27357;SDS011;14831;50.474;7.616;2023-04-15T04:54:07;0.8;;;0.8;;
27357;SDS011;14831;50.474;7.616;2023-04-15T04:59:07;0.8;;;0.8;;
27357;SDS011;14831;50.474;7.616;2023-04-15T05:04:07;0.8;;;0.8;;
27357;SDS011;14831;50.474;7.616;2023-04-15T05:09:07;0.8;;;0.8;;
27357;SDS011;14831;50.474;7.616;2023-04-15T05:14:07;0.9;;;0.9;;
27357;SDS011;14831;50.474;7.616;2023-04-15T05:19:07;0.9;;;0.9;;
27357;SDS011;14831;50.474;7.616;2023-04-15T05:24:07;0.9;;;0.9;;
27357;SDS011;14831;50.474;7.616;2023-04-15T05:29:07;0.9;;;0.9;;
27357;SDS011;14831;50.474;7.616;2023-04-15T05:34:07;0.9;;;0.9;;
27357;SDS011;14831;50.474;7.616;2023-04-15T05:39:07;0.9;;;0.9;;
27357;SDS011;14831;50.474;7.616;2023-04-15T05:44:07;0.9;;;0.9;;
27357;SDS011;14831;50.474;7.616;2023-04-15T05:49:07;0.9;;;0.9;;
27357;SDS011;14831;50.474;7.616;2023-04-15T05:54:07;0.9;;;0.9;;
27357;SDS011;14831;50.474;7.616;2023-04-15T05:59:07;0.9;;;0.9;;
27357;SDS011;14831;50.474;7.616;2023-04-15T06:04:07;0.9;;;0.9;;
27357;SDS011;14831;50.474;7.616;2023-04-15T06:09:07;0.9;;;0.9;;
27357;SDS011;14831;50.474;7.616;2023-04-15T06:14:07;1.0;;;0.9;;
27357;SDS011;14831;50.474;7.616;2023-04-15T06:19:07;1.0;;;0.9;;
27357;SDS011;14831;50.474;7.616;2023-04-15T06:24:07;1.0;;;0.9;;
27357;SDS011;14831;50.474;7.616;2023-04-15T06:29:07;1.0;;;0.9;;
27357;SDS011;14831;50.474;7.616;2023-04-15T06:34:07;1.0;;;0.9;;
27357;SDS011;14831;50.474;7.616;2023-04-15T06:39:07;1.0;;;0.9;;
27357;SDS011;14831;50.474;7.616;2023-04-15T06:44:07;1.0;;;0.9;;
27357;SDS011;14831;50.474;7.616;2023-04-15T06:49:07;1.0;;;0.9;;
27357;SDS011;14831;50.474;7.616;2023-04-15T06:54:07;1.0;;;0.9;;
27357;SDS011;14831;50.474;7.616;2023-04-15T06:59:07;1.0;;;0.9;;
27357;SDS011;14831;50.474;7.616;2023-04-15T07:04:07;1.0;;;0.9;;
27357;SDS011;14831;50.474;7.616;2023-04-15T07:09:07;1.0;;;0.9;;
27357;SDS011;14831;50.474;7.616;2023-04-15T07:14:07;0.9;;;0.9;;
27357;SDS011;14831;50.474;7.616;2023-04-15T07:19:07;0.9;;;0.9;;
27357;SDS011;14831;50.474;7.616;2023-04-15T07:24:07;0.9;;;0.9;;
27357;SDS011;14831;50.474;7.616;2023-04-15T07:29:07;0.9;;;0.9;;
27357;SDS011;14831;50.474;7.616;2023-04-15T07:34:07;0.9;;;0.9;;
27357;SDS011;14831;50.474;7.616;2023-04-15T07:39:07;0.9;;;0.9;;
27357;SDS011;14831;50.474;7.616;2023-04-15T07:44:07;2.0;;;1.5;;
27357;SDS011;14831;50.474;7.616;2023-04-15T07:49:07;2.0;;;1.5;;
27357;SDS011;14831;50.474;7.616;2023-04-15T07:54:07;2.0;;;1.5;;
27357;SDS011;14831;50.474;7.616;2023-04-15T07:59:07;2.0;;;1.5;;
27357;SDS011;14831;50.474;7.616;2023-04-15T08:04:07;2.0;;;1.5;;
27357;SDS011;14831;50.474;7.616;2023-04-15T08:09:07;2.0;;;1.5;;
27357;SDS011;14831;50.474;7.616;2023-04-15T08:14:07;1.5;;;1.4;;
27357;SDS011;14831;50.474;7.616;2023-04-15T08:19:07;1.5;;;1.4;;
27357;SDS011;14831;50.474;7.616;2023-04-15T08:24:07;1.5;;;1.4;;
27357;SDS011;14831;50.474;7.616;2023-04-15T08:29:07;1.5;;;1.4;;
27357;SDS011;14831;50.474;7.616;2023-04-15T08:34:07;1.5;;;1.4;;
27357;SDS011;14831;50.474;7.616;2023-04-15T08:39:07;1.5;;;1.4;;
27357;SDS011;14831;50.474;7.616;2023-04-15T08:44:08;1.4;;;1.3;;
27357;SDS011;14831;50.474;7.616;2023-04-15T08:49:11;1.4;;;1.3;;
27357;SDS011;14831;50.474;7.616;2023-04-15T08:54:07;1.4;;;1.3;;
27357;SDS011;14831;50.474;7.616;2023-04-15T08:59:07;1.4;;;1.3;;
27357;SDS011;14831;50.474;7.616;2023-04-15T09:04:07;1.4;;;1.3;;
27357;SDS011;14831;50.474;7.616;2023-04-15T09:09:07;1.4;;;1.3;;
27357;SDS011;14831;50.474;7.616;2023-04-15T09:14:07;1.4;;;1.3;;
27357;SDS011;14831;50.474;7.616;2023-04-15T09:19:19;1.4;;;1.3;;
27357;SDS011;14831;50.474;7.616;2023-04-15T09:24:12;1.4;;;1.3;;
27357;SDS011;14831;50.474;7.616;2023-04-15T09:29:08;1.4;;;1.3;;
27357;SDS011;14831;50.474;7.616;2023-04-15T09:34:07;1.4;;;1.3;;
27357;SDS011;14831;50.474;7.616;2023-04-15T09:39:07;1.4;;;1.3;;
27357;SDS011;14831;50.474;7.616;2023-04-15T09:44:28;1.2;;;1.1;;
27357;SDS011;14831;50.474;7.616;2023-04-15T09:49:07;1.2;;;1.1;;
27357;SDS011;14831;50.474;7.616;2023-04-15T09:54:07;1.2;;;1.1;;
27357;SDS011;14831;50.474;7.616;2023-04-15T09:59:07;1.2;;;1.1;;
27357;SDS011;14831;50.474;7.616;2023-04-15T10:04:07;1.2;;;1.1;;
27357;SDS011;14831;50.474;7.616;2023-04-15T10:09:07;1.2;;;1.1;;
27357;SDS011;14831;50.474;7.616;2023-04-15T10:14:07;1.1;;;0.8;;
27357;SDS011;14831;50.474;7.616;2023-04-15T10:19:08;1.1;;;0.8;;
27357;SDS011;14831;50.474;7.616;2023-04-15T10:24:11;1.1;;;0.8;;
27357;SDS011;14831;50.474;7.616;2023-04-15T10:29:08;1.1;;;0.8;;
27357;SDS011;14831;50.474;7.616;2023-04-15T10:34:07;1.1;;;0.8;;
27357;SDS011;14831;50.474;7.616;2023-04-15T10:39:38;1.1;;;0.8;;
27357;SDS011;14831;50.474;7.616;2023-04-15T10:44:07;1.1;;;0.8;;
27357;SDS011;14831;50.474;7.616;2023-04-15T10:49:08;1.1;;;0.8;;
27357;SDS011;14831;50.474;7.616;2023-04-15T10:54:11;1.1;;;0.8;;
27357;SDS011;14831;50.474;7.616;2023-04-15T10:59:07;1.1;;;0.8;;
27357;SDS011;14831;50.474;7.616;2023-04-15T11:04:07;1.1;;;0.8;;
27357;SDS011;14831;50.474;7.616;2023-04-15T11:09:07;1.1;;;0.8;;
27357;SDS011;14831;50.474;7.616;2023-04-15T11:14:14;2.3;;;0.8;;
27357;SDS011;14831;50.474;7.616;2023-04-15T11:19:07;2.3;;;0.8;;
27357;SDS011;14831;50.474;7.616;2023-04-15T11:24:07;2.3;;;0.8;;
27357;SDS011;14831;50.474;7.616;2023-04-15T11:29:07;2.3;;;0.8;;
27357;SDS011;14831;50.474;7.616;2023-04-15T11:34:07;2.3;;;0.8;;
27357;SDS011;14831;50.474;7.616;2023-04-15T11:39:07;2.3;;;0.8;;
27357;SDS011;14831;50.474;7.616;2023-04-15T11:44:15;1.2;;;0.8;;
27357;SDS011;14831;50.474;7.616;2023-04-15T11:49:07;1.2;;;0.8;;
27357;SDS011;14831;50.474;7.616;2023-04-15T11:54:17;1.2;;;0.8;;
27357;SDS011;14831;50.474;7.616;2023-04-15T11:59:07;1.2;;;0.8;;
27357;SDS011;14831;50.474;7.616;2023-04-15T12:04:10;1.2;;;0.8;;
27357;SDS011;14831;50.474;7.616;2023-04-15T12:09:09;1.2;;;0.8;;
27357;SDS011;14831;50.474;7.616;2023-04-15T12:14:11;0.6;;;0.6;;
27357;SDS011;14831;50.474;7.616;2023-04-15T12:19:09;0.6;;;0.6;;
27357;SDS011;14831;50.474;7.616;2023-04-15T12:24:09;0.6;;;0.6;;
27357;SDS011;14831;50.474;7.616;2023-04-15T12:29:07;0.8;;;0.6;;
27357;SDS011;14831;50.474;7.616;2023-04-15T12:34:07;0.8;;;0.6;;
27357;SDS011;14831;50.474;7.616;2023-04-15T12:39:07;0.8;;;0.6;;
27357;SDS011;14831;50.474;7.616;2023-04-15T12:44:07;0.8;;;0.6;;
27357;SDS011;14831;50.474;7.616;2023-04-15T12:49:07;0.8;;;0.6;;
27357;SDS011;14831;50.474;7.616;2023-04-15T12:54:07;0.8;;;0.6;;
27357;SDS011;14831;50.474;7.616;2023-04-15T12:59:07;2.4;;;0.7;;
27357;SDS011;14831;50.474;7.616;2023-04-15T13:04:07;2.4;;;0.7;;
27357;SDS011;14831;50.474;7.616;2023-04-15T13:09:07;2.4;;;0.7;;
27357;SDS011;14831;50.474;7.616;2023-04-15T13:14:08;2.4;;;0.7;;
27357;SDS011;14831;50.474;7.616;2023-04-15T13:19:07;2.4;;;0.7;;
27357;SDS011;14831;50.474;7.616;2023-04-15T13:24:07;2.4;;;0.7;;
27357;SDS011;14831;50.474;7.616;2023-04-15T13:29:07;1.3;;;0.8;;
27357;SDS011;14831;50.474;7.616;2023-04-15T13:34:07;1.3;;;0.8;;
27357;SDS011;14831;50.474;7.616;2023-04-15T13:39:07;1.3;;;0.8;;
27357;SDS011;14831;50.474;7.616;2023-04-15T13:44:07;1.3;;;0.8;;
27357;SDS011;14831;50.474;7.616;2023-04-15T13:49:12;1.3;;;0.8;;
27357;SDS011;14831;50.474;7.616;2023-04-15T13:54:07;1.3;;;0.8;;
27357;SDS011;14831;50.474;7.616;2023-04-15T13:59:07;4.4;;;1.4;;
27357;SDS011;14831;50.474;7.616;2023-04-15T14:04:07;4.4;;;1.4;;
27357;SDS011;14831;50.474;7.616;2023-04-15T14:09:07;4.4;;;1.4;;
27357;SDS011;14831;50.474;7.616;2023-04-15T14:14:07;4.4;;;1.4;;
27357;SDS011;14831;50.474;7.616;2023-04-15T14:19:07;4.4;;;1.4;;
27357;SDS011;14831;50.474;7.616;2023-04-15T14:24:07;4.4;;;1.4;;
27357;SDS011;14831;50.474;7.616;2023-04-15T14:29:07;1.9;;;1.1;;
27357;SDS011;14831;50.474;7.616;2023-04-15T14:34:15;1.9;;;1.1;;
27357;SDS011;14831;50.474;7.616;2023-04-15T14:39:07;1.9;;;1.1;;
27357;SDS011;14831;50.474;7.616;2023-04-15T14:44:07;1.9;;;1.1;;
27357;SDS011;14831;50.474;7.616;2023-04-15T14:49:07;1.9;;;1.1;;
27357;SDS011;14831;50.474;7.616;2023-04-15T14:54:07;1.9;;;1.1;;
27357;SDS011;14831;50.474;7.616;2023-04-15T14:59:07;1.2;;;1.1;;
27357;SDS011;14831;50.474;7.616;2023-04-15T15:04:08;1.2;;;1.1;;
27357;SDS011;14831;50.474;7.616;2023-04-15T15:09:07;1.2;;;1.1;;
27357;SDS011;14831;50.474;7.616;2023-04-15T15:14:07;1.2;;;1.1;;
27357;SDS011;14831;50.474;7.616;2023-04-15T15:19:07;1.2;;;1.1;;
27357;SDS011;14831;50.474;7.616;2023-04-15T15:24:07;1.2;;;1.1;;
27357;SDS011;14831;50.474;7.616;2023-04-15T15:29:07;1.3;;;1.2;;
27357;SDS011;14831;50.474;7.616;2023-04-15T15:34:07;1.3;;;1.2;;
27357;SDS011;14831;50.474;7.616;2023-04-15T15:39:07;1.3;;;1.2;;
27357;SDS011;14831;50.474;7.616;2023-04-15T15:44:12;1.3;;;1.2;;
27357;SDS011;14831;50.474;7.616;2023-04-15T15:49:07;1.3;;;1.2;;
27357;SDS011;14831;50.474;7.616;2023-04-15T15:54:07;1.3;;;1.2;;
27357;SDS011;14831;50.474;7.616;2023-04-15T15:59:07;2.2;;;1.4;;
27357;SDS011;14831;50.474;7.616;2023-04-15T16:04:07;2.2;;;1.4;;
27357;SDS011;14831;50.474;7.616;2023-04-15T16:09:07;2.2;;;1.4;;
27357;SDS011;14831;50.474;7.616;2023-04-15T16:14:07;2.2;;;1.4;;
27357;SDS011;14831;50.474;7.616;2023-04-15T16:19:07;2.2;;;1.4;;
27357;SDS011;14831;50.474;7.616;2023-04-15T16:24:07;2.2;;;1.4;;
27357;SDS011;14831;50.474;7.616;2023-04-15T16:29:07;1.3;;;1.2;;
27357;SDS011;14831;50.474;7.616;2023-04-15T16:34:07;1.3;;;1.2;;
27357;SDS011;14831;50.474;7.616;2023-04-15T16:39:07;1.3;;;1.2;;
27357;SDS011;14831;50.474;7.616;2023-04-15T16:44:07;1.3;;;1.2;;
27357;SDS011;14831;50.474;7.616;2023-04-15T16:49:07;1.3;;;1.2;;
27357;SDS011;14831;50.474;7.616;2023-04-15T16:54:07;1.3;;;1.2;;
27357;SDS011;14831;50.474;7.616;2023-04-15T16:59:07;1.2;;;1.1;;
27357;SDS011;14831;50.474;7.616;2023-04-15T17:04:07;1.2;;;1.1;;
27357;SDS011;14831;50.474;7.616;2023-04-15T17:09:07;1.2;;;1.1;;
27357;SDS011;14831;50.474;7.616;2023-04-15T17:14:08;1.2;;;1.1;;
27357;SDS011;14831;50.474;7.616;2023-04-15T17:19:07;1.2;;;1.1;;
27357;SDS011;14831;50.474;7.616;2023-04-15T17:24:07;1.2;;;1.1;;
27357;SDS011;14831;50.474;7.616;2023-04-15T17:29:07;1.3;;;1.3;;
27357;SDS011;14831;50.474;7.616;2023-04-15T17:34:07;1.3;;;1.3;;
27357;SDS011;14831;50.474;7.616;2023-04-15T17:39:07;1.3;;;1.3;;
27357;SDS011;14831;50.474;7.616;2023-04-15T17:44:07;1.3;;;1.3;;
27357;SDS011;14831;50.474;7.616;2023-04-15T17:49:07;1.3;;;1.3;;
27357;SDS011;14831;50.474;7.616;2023-04-15T17:54:07;1.3;;;1.3;;
27357;SDS011;14831;50.474;7.616;2023-04-15T17:59:07;1.1;;;1.1;;
27357;SDS011;14831;50.474;7.616;2023-04-15T18:04:07;1.1;;;1.1;;
27357;SDS011;14831;50.474;7.616;2023-04-15T18:09:07;1.1;;;1.1;;
27357;SDS011;14831;50.474;7.616;2023-04-15T18:14:07;1.1;;;1.1;;
27357;SDS011;14831;50.474;7.616;2023-04-15T18:19:09;1.1;;;1.1;;
27357;SDS011;14831;50.474;7.616;2023-04-15T18:24:07;1.1;;;1.1;;
27357;SDS011;14831;50.474;7.616;2023-04-15T18:29:07;1.2;;;1.2;;
27357;SDS011;14831;50.474;7.616;2023-04-15T18:34:07;1.2;;;1.2;;
27357;SDS011;14831;50.474;7.616;2023-04-15T18:39:07;1.2;;;1.2;;
27357;SDS011;14831;50.474;7.616;2023-04-15T18:44:07;1.2;;;1.2;;
27357;SDS011;14831;50.474;7.616;2023-04-15T18:49:07;1.2;;;1.2;;
27357;SDS011;14831;50.474;7.616;2023-04-15T18:54:07;1.2;;;1.2;;
27357;SDS011;14831;50.474;7.616;2023-04-15T18:59:07;1.3;;;1.3;;
27357;SDS011;14831;50.474;7.616;2023-04-15T19:04:07;1.3;;;1.3;;
27357;SDS011;14831;50.474;7.616;2023-04-15T19:09:07;1.3;;;1.3;;
27357;SDS011;14831;50.474;7.616;2023-04-15T19:14:07;1.3;;;1.3;;
27357;SDS011;14831;50.474;7.616;2023-04-15T19:19:07;1.3;;;1.3;;
27357;SDS011;14831;50.474;7.616;2023-04-15T19:24:07;1.3;;;1.3;;
27357;SDS011;14831;50.474;7.616;2023-04-15T19:29:07;1.2;;;1.0;;
27357;SDS011;14831;50.474;7.616;2023-04-15T19:34:07;1.2;;;1.0;;
27357;SDS011;14831;50.474;7.616;2023-04-15T19:39:07;1.2;;;1.0;;
27357;SDS011;14831;50.474;7.616;2023-04-15T19:44:09;1.2;;;1.0;;
27357;SDS011;14831;50.474;7.616;2023-04-15T19:49:07;1.2;;;1.0;;
27357;SDS011;14831;50.474;7.616;2023-04-15T19:54:07;1.2;;;1.0;;
27357;SDS011;14831;50.474;7.616;2023-04-15T19:59:07;1.0;;;1.0;;
27357;SDS011;14831;50.474;7.616;2023-04-15T20:04:07;1.0;;;1.0;;
27357;SDS011;14831;50.474;7.616;2023-04-15T20:09:07;1.0;;;1.0;;
27357;SDS011;14831;50.474;7.616;2023-04-15T20:14:07;1.0;;;1.0;;
27357;SDS011;14831;50.474;7.616;2023-04-15T20:19:07;1.0;;;1.0;;
27357;SDS011;14831;50.474;7.616;2023-04-15T20:24:07;1.0;;;1.0;;
27357;SDS011;14831;50.474;7.616;2023-04-15T20:29:07;1.0;;;1.0;;
27357;SDS011;14831;50.474;7.616;2023-04-15T20:34:07;1.0;;;1.0;;
27357;SDS011;14831;50.474;7.616;2023-04-15T20:39:07;1.0;;;1.0;;
27357;SDS011;14831;50.474;7.616;2023-04-15T20:44:07;1.0;;;1.0;;
27357;SDS011;14831;50.474;7.616;2023-04-15T20:49:07;1.0;;;1.0;;
27357;SDS011;14831;50.474;7.616;2023-04-15T20:54:07;1.0;;;1.0;;
27357;SDS011;14831;50.474;7.616;2023-04-15T20:59:07;1.3;;;1.2;;
27357;SDS011;14831;50.474;7.616;2023-04-15T21:04:07;1.3;;;1.2;;
27357;SDS011;14831;50.474;7.616;2023-04-15T21:09:07;1.3;;;1.2;;
27357;SDS011;14831;50.474;7.616;2023-04-15T21:14:07;1.3;;;1.2;;
27357;SDS011;14831;50.474;7.616;2023-04-15T21:19:08;1.3;;;1.2;;
27357;SDS011;14831;50.474;7.616;2023-04-15T21:24:07;1.3;;;1.2;;
27357;SDS011;14831;50.474;7.616;2023-04-15T21:29:10;1.2;;;1.1;;
27357;SDS011;14831;50.474;7.616;2023-04-15T21:34:07;1.2;;;1.1;;
27357;SDS011;14831;50.474;7.616;2023-04-15T21:39:07;1.2;;;1.1;;
27357;SDS011;14831;50.474;7.616;2023-04-15T21:44:07;1.2;;;1.1;;
27357;SDS011;14831;50.474;7.616;2023-04-15T21:49:07;1.2;;;1.1;;
27357;SDS011;14831;50.474;7.616;2023-04-15T21:54:07;1.2;;;1.1;;
27357;SDS011;14831;50.474;7.616;2023-04-15T21:59:07;1.4;;;1.3;;
27357;SDS011;14831;50.474;7.616;2023-04-15T22:04:07;1.4;;;1.3;;
27357;SDS011;14831;50.474;7.616;2023-04-15T22:09:07;1.4;;;1.3;;
27357;SDS011;14831;50.474;7.616;2023-04-15T22:14:07;1.4;;;1.3;;
27357;SDS011;14831;50.474;7.616;2023-04-15T22:19:07;1.4;;;1.3;;
27357;SDS011;14831;50.474;7.616;2023-04-15T22:24:07;1.4;;;1.3;;
27357;SDS011;14831;50.474;7.616;2023-04-15T22:29:07;1.4;;;1.3;;
27357;SDS011;14831;50.474;7.616;2023-04-15T22:34:07;1.4;;;1.3;;
27357;SDS011;14831;50.474;7.616;2023-04-15T22:39:07;1.4;;;1.3;;
27357;SDS011;14831;50.474;7.616;2023-04-15T22:44:07;1.4;;;1.3;;
27357;SDS011;14831;50.474;7.616;2023-04-15T22:49:08;1.4;;;1.3;;
27357;SDS011;14831;50.474;7.616;2023-04-15T22:54:10;1.4;;;1.3;;
27357;SDS011;14831;50.474;7.616;2023-04-15T22:59:07;1.3;;;1.3;;
27357;SDS011;14831;50.474;7.616;2023-04-15T23:04:07;1.3;;;1.3;;
27357;SDS011;14831;50.474;7.616;2023-04-15T23:09:07;1.3;;;1.3;;
27357;SDS011;14831;50.474;7.616;2023-04-15T23:14:07;1.3;;;1.3;;
27357;SDS011;14831;50.474;7.616;2023-04-15T23:19:07;1.3;;;1.3;;
27357;SDS011;14831;50.474;7.616;2023-04-15T23:24:07;1.3;;;1.3;;
27357;SDS011;14831;50.474;7.616;2023-04-15T23:29:07;1.5;;;1.4;;
27357;SDS011;14831;50.474;7.616;2023-04-15T23:34:07;1.5;;;1.4;;
27357;SDS011;14831;50.474;7.616;2023-04-15T23:39:07;1.5;;;1.4;;
27357;SDS011;14831;50.474;7.616;2023-04-15T23:44:07;1.5;;;1.4;;
27357;SDS011;14831;50.474;7.616;2023-04-15T23:49:07;1.5;;;1.4;;
27357;SDS011;14831;50.474;7.616;2023-04-15T23:54:07;1.5;;;1.4;;
27357;SDS011;14831;50.474;7.616;2023-04-15T23:59:07;1.5;;;1.4;;
